Weather History for Woodward, OK

Change the Weather History Date:

Monday, January 21, 2013

  Actual Average (KGAG) Record (KGAG)
Temperature  
Mean Temperature 30 °F -  
Max Temperature 44 °F 47 °F 78 °F (2005)
Min Temperature 17 °F 23 °F -4 °F (1984)
Degree Days  
Heating Degree Days 34    
Moisture  
Dew Point 17 °F    
Average Humidity 60    
Maximum Humidity 86    
Minimum Humidity 33    
Precipitation  
Precipitation 0.00 in - - ()
Sea Level Pressure  
Sea Level Pressure 30.32 in    
Wind  
Wind Speed 6 mph (South)    
Max Wind Speed 10 mph    
Max Gust Speed -    
Visibility 10 miles    
Events      
Averages and records for this station are not official NWS values.
T = Trace of Precipitation, MM = Missing Value Source: NWS Daily Summary

Daily Weather History Graph

Daily Weather History Graph

Search for Another Location

Airport:

Trip Planner

Search our weather history database for the weather conditions in past years. The results will help you decide how hot, cold, wet, or windy it might be!

Date:

Astronomy

Jan. 21, 2013 Rise Set
Actual Time 7:46 AM CST 5:52 PM CST
Civil Twilight 7:18 AM CST 6:20 PM CST
Nautical Twilight 6:47 AM CST 6:52 PM CST
Astronomical Twilight 6:16 AM CST 7:22 PM CST
Moon 1:34 PM CST (1/21) 3:15 AM CST (1/21)
Length of Visible Light 11h 01m
Length of Day
10h 06m
Waxing Gibbous, 75% of the Moon is Illuminated
Jan 21
Waxing Gibbous
Jan 26
Full
Feb 3
Last Quarter
Feb 10
New
Feb 17
First Quarter

Hourly Weather History & Observations

Time (CST) Temp. Windchill Dew Point Humidity Pressure Visibility Wind Dir Wind Speed Gust Speed Precip Events Conditions
12:15 AM 28.4 °F 21.2 °F 19.4 °F 69% 30.36 in 10.0 mi NNE 6.9 mph - N/A   Clear
12:35 AM 28.4 °F 19.1 °F 19.4 °F 69% 30.36 in 10.0 mi NNE 10.4 mph - N/A   Clear
12:55 AM 26.6 °F 20.0 °F 19.4 °F 74% 30.36 in 10.0 mi North 5.8 mph - N/A   Clear
1:15 AM 26.6 °F 17.5 °F 19.4 °F 74% 30.36 in 10.0 mi North 9.2 mph - N/A   Clear
1:35 AM 26.6 °F 18.2 °F 19.4 °F 74% 30.36 in 10.0 mi NNE 8.1 mph - N/A   Clear
1:55 AM 24.8 °F 16.1 °F 17.6 °F 74% 30.37 in 10.0 mi North 8.1 mph - N/A   Clear
2:15 AM 24.8 °F 17.9 °F 17.6 °F 74% 30.37 in 10.0 mi North 5.8 mph - N/A   Clear
2:55 AM 23.0 °F 13.9 °F 17.6 °F 80% 30.38 in 10.0 mi North 8.1 mph - N/A   Clear
3:15 AM 23.0 °F 15.8 °F 17.6 °F 80% 30.38 in 10.0 mi North 5.8 mph - N/A   Clear
3:35 AM 23.0 °F 15.8 °F 17.6 °F 80% 30.38 in 10.0 mi NNE 5.8 mph - N/A   Clear
3:55 AM 23.0 °F 13.9 °F 15.8 °F 74% 30.37 in 10.0 mi NNE 8.1 mph - N/A   Clear
4:15 AM 23.0 °F 14.7 °F 14.0 °F 68% 30.36 in 10.0 mi NNE 6.9 mph - N/A   Clear
4:35 AM 21.2 °F 13.6 °F 14.0 °F 74% 30.36 in 10.0 mi NNE 5.8 mph - N/A   Clear
4:55 AM 21.2 °F 12.6 °F 15.8 °F 80% 30.36 in 10.0 mi NNE 6.9 mph - N/A   Clear
5:15 AM 21.2 °F 12.6 °F 14.0 °F 74% 30.36 in 10.0 mi NNE 6.9 mph - N/A   Clear
5:35 AM 19.4 °F 11.5 °F 14.0 °F 80% 30.36 in 10.0 mi North 5.8 mph - N/A   Clear
5:55 AM 19.4 °F 11.5 °F 14.0 °F 80% 30.37 in 10.0 mi North 5.8 mph - N/A   Clear
6:15 AM 19.4 °F 11.5 °F 14.0 °F 80% 30.38 in 10.0 mi North 5.8 mph - N/A   Clear
6:35 AM 19.4 °F 11.5 °F 14.0 °F 80% 30.39 in 10.0 mi North 5.8 mph - N/A   Clear
6:55 AM 19.4 °F 11.5 °F 14.0 °F 80% 30.39 in 10.0 mi North 5.8 mph - N/A   Clear
7:15 AM 17.6 °F 9.3 °F 14.0 °F 86% 30.39 in 10.0 mi NNW 5.8 mph - N/A   Clear
7:35 AM 17.6 °F 10.7 °F 14.0 °F 86% 30.39 in 10.0 mi NNW 4.6 mph - N/A   Clear
7:55 AM 17.6 °F 10.7 °F 14.0 °F 86% 30.40 in 10.0 mi NNW 4.6 mph - N/A   Clear
8:15 AM 19.4 °F 14.3 °F 14.0 °F 80% 30.40 in 10.0 mi NNW 3.5 mph - N/A   Clear
8:35 AM 21.2 °F 14.9 °F 14.0 °F 74% 30.41 in 10.0 mi NNW 4.6 mph - N/A   Clear
8:55 AM 23.0 °F 17.0 °F 14.0 °F 68% 30.42 in 10.0 mi NNW 4.6 mph - N/A   Clear
9:15 AM 24.8 °F 19.1 °F 14.0 °F 64% 30.42 in 10.0 mi North 4.6 mph - N/A   Clear
9:35 AM 26.6 °F 21.2 °F 12.2 °F 55% 30.42 in 10.0 mi NNE 4.6 mph - N/A   Clear
9:55 AM 26.6 °F 22.6 °F 14.0 °F 59% 30.43 in 10.0 mi NNE 3.5 mph - N/A   Clear
10:15 AM 28.4 °F - 14.0 °F 55% 30.43 in 10.0 mi Calm Calm - N/A   Clear
10:35 AM 28.4 °F - 14.0 °F 55% 30.43 in 10.0 mi Calm Calm - N/A   Clear
10:55 AM 30.2 °F - 14.0 °F 51% 30.43 in 10.0 mi Calm Calm - N/A   Clear
11:15 AM 30.2 °F 26.7 °F 14.0 °F 51% 30.43 in 10.0 mi NE 3.5 mph - N/A   Clear
11:55 AM 32.0 °F 27.5 °F 15.8 °F 51% 30.40 in 10.0 mi SSW 4.6 mph - N/A   Clear
12:15 PM 32.0 °F 26.4 °F 15.8 °F 51% 30.37 in 10.0 mi South 5.8 mph - N/A   Clear
12:35 PM 33.8 °F 29.6 °F 14.0 °F 44% 30.36 in 10.0 mi SW 4.6 mph - N/A   Clear
12:55 PM 35.6 °F - 14.0 °F 41% 30.35 in 10.0 mi Calm Calm - N/A   Clear
1:15 PM 35.6 °F 29.9 °F 14.0 °F 41% 30.32 in 10.0 mi SSE 6.9 mph - N/A   Clear
1:35 PM 37.4 °F 33.8 °F 14.0 °F 38% 30.31 in 10.0 mi SSE 4.6 mph - N/A   Clear
1:55 PM 39.2 °F 34.2 °F 14.0 °F 36% 30.30 in 10.0 mi SW 6.9 mph - N/A   Clear
2:15 PM 39.2 °F 37.0 °F 15.8 °F 39% 30.29 in 10.0 mi WSW 3.5 mph - N/A   Clear
2:35 PM 41.0 °F 38.0 °F 14.0 °F 33% 30.29 in 10.0 mi WSW 4.6 mph - N/A   Clear
2:55 PM 41.0 °F 37.1 °F 15.8 °F 36% 30.27 in 10.0 mi WSW 5.8 mph - N/A   Clear
3:15 PM 42.8 °F 38.0 °F 15.8 °F 34% 30.26 in 10.0 mi SSW 8.1 mph - N/A   Clear
3:35 PM 42.8 °F 38.0 °F 15.8 °F 34% 30.25 in 10.0 mi SSW 8.1 mph - N/A   Clear
3:55 PM 44.6 °F 40.7 °F 17.6 °F 34% 30.24 in 10.0 mi South 6.9 mph - N/A   Clear
4:15 PM 44.6 °F 40.7 °F 17.6 °F 34% 30.24 in 10.0 mi SSW 6.9 mph - N/A   Clear
4:35 PM 44.6 °F 40.2 °F 17.6 °F 34% 30.23 in 10.0 mi SSW 8.1 mph - N/A   Clear
4:55 PM 44.6 °F 41.4 °F 17.6 °F 34% 30.23 in 10.0 mi South 5.8 mph - N/A   Clear
5:15 PM 42.8 °F 38.6 °F 17.6 °F 36% 30.22 in 10.0 mi SSW 6.9 mph - N/A   Clear
5:35 PM 41.0 °F 38.0 °F 19.4 °F 42% 30.22 in 10.0 mi South 4.6 mph - N/A   Clear
5:55 PM 37.4 °F 33.8 °F 19.4 °F 48% 30.21 in 10.0 mi SSW 4.6 mph - N/A   Clear
6:15 PM 35.6 °F 30.7 °F 19.4 °F 52% 30.21 in 10.0 mi SSW 5.8 mph - N/A   Clear
6:35 PM 33.8 °F 27.7 °F 19.4 °F 56% 30.22 in 10.0 mi South 6.9 mph - N/A   Clear
6:55 PM 32.0 °F 26.4 °F 19.4 °F 60% 30.23 in 10.0 mi South 5.8 mph - N/A   Clear
7:15 PM 32.0 °F 27.5 °F 19.4 °F 60% 30.23 in 10.0 mi SSE 4.6 mph - N/A   Clear
7:35 PM 32.0 °F 25.6 °F 19.4 °F 60% 30.23 in 10.0 mi SSE 6.9 mph - N/A   Clear
7:55 PM 30.2 °F 22.6 °F 19.4 °F 64% 30.24 in 10.0 mi SSE 8.1 mph - N/A   Clear
8:15 PM 32.0 °F 25.6 °F 19.4 °F 60% 30.23 in 10.0 mi SSE 6.9 mph - N/A   Clear
8:35 PM 32.0 °F 24.2 °F 19.4 °F 60% 30.23 in 10.0 mi SSE 9.2 mph - N/A   Clear
8:55 PM 32.0 °F 24.8 °F 19.4 °F 60% 30.23 in 10.0 mi SSE 8.1 mph - N/A   Clear
9:15 PM 32.0 °F 24.2 °F 19.4 °F 60% 30.23 in 10.0 mi SSE 9.2 mph - N/A   Clear
9:35 PM 32.0 °F 24.8 °F 19.4 °F 60% 30.23 in 10.0 mi SSE 8.1 mph - N/A   Clear
9:55 PM 32.0 °F 24.8 °F 19.4 °F 60% 30.23 in 10.0 mi SSE 8.1 mph - N/A   Clear
10:15 PM 32.0 °F 24.2 °F 19.4 °F 60% 30.23 in 10.0 mi SSE 9.2 mph - N/A   Clear
10:35 PM 32.0 °F 24.8 °F 19.4 °F 60% 30.21 in 10.0 mi South 8.1 mph - N/A   Clear
10:55 PM 32.0 °F 24.2 °F 19.4 °F 60% 30.21 in 10.0 mi South 9.2 mph - N/A   Clear
11:15 PM 33.8 °F 25.8 °F 19.4 °F 56% 30.21 in 10.0 mi South 10.4 mph - N/A   Clear
11:35 PM 33.8 °F 26.4 °F 19.4 °F 56% 30.21 in 10.0 mi SSW 9.2 mph - N/A   Clear
11:55 PM 32.0 °F 24.2 °F 19.4 °F 60% 30.20 in 10.0 mi South 9.2 mph - N/A   Clear